Close Search

Base
°C
Summit
°C

WEATHER AT A GLANCE

Image Slideshow

RMR Village

Revelstoke Mountain Resort -  RMR Village Webcam

Top of The Stoke

Revelstoke Mountain Resort -  Top of The Stoke Webcam

Top of Stellar

Revelstoke Mountain Resort -  Top of Stellar Webcam

Mackenzie Outpost

Revelstoke Mountain Resort -  Mackenzie Outpost Webcam

Ripper

Revelstoke Mountain Resort -  Ripper Webcam
Base
°C
Summit
°C
Wind (Summit)
km/h

Today's Forecast

Subpeak Weather

Time Avg. Air Temp Dew Point Avg. Rel Humidity Avg. 2 Min Wind Speed Max Gust Velocity MGV Time MGV Direction Avg. Spot Wind Velocity
2026-09-03 05:15:003° C3° C100%9 km/h13 km/h05:11:00SE10 km/h
04:15:004° C2° C88%17 km/h20 km/h04:12:00SE18 km/h
03:15:004° C3° C93%10 km/h15 km/h03:14:00E12 km/h
02:15:004° C2° C89%14 km/h19 km/h02:11:00SE14 km/h
01:15:004° C3° C98%18 km/h22 km/h01:13:00SE19 km/h
00:15:004° C3° C97%2 km/h10 km/h00:11:00SE5 km/h
23:15:004° C4° C100%24 km/h31 km/h23:13:00S25 km/h
22:15:004° C4° C100%29 km/h45 km/h22:12:00SE33 km/h
21:15:004° C4° C100%25 km/h44 km/h21:12:00SE30 km/h
20:15:005° C5° C100%29 km/h41 km/h20:11:00SE27 km/h
19:15:005° C5° C99%29 km/h34 km/h19:14:00SE26 km/h
18:15:006° C5° C91%8 km/h23 km/h18:11:00E11 km/h
17:15:006° C4° C89%12 km/h19 km/h17:12:00SE14 km/h
16:15:006° C5° C99%2 km/h7 km/h16:11:00SE2 km/h
15:15:008° C6° C80%6 km/h12 km/h15:12:00S6 km/h
14:15:007° C3° C75%9 km/h13 km/h14:15:00S6 km/h
13:15:007° C2° C68%27 km/h46 km/h13:11:00SE30 km/h
12:15:007° C3° C75%15 km/h32 km/h12:11:00E17 km/h
11:15:007° C6° C86%13 km/h21 km/h11:12:00SE16 km/h
10:15:009° C5° C76%11 km/h21 km/h10:11:00SE13 km/h
09:15:008° C5° C79%13 km/h22 km/h09:15:00SE15 km/h
08:15:008° C4° C80%18 km/h26 km/h08:11:00SE18 km/h
07:15:007° C4° C80%18 km/h27 km/h07:13:00SE20 km/h
06:15:007° C4° C82%22 km/h32 km/h06:12:00SE22 km/h

Time Avg. Air Temp Dew Point Avg. Rel Humidity Avg. 2 Min Wind Speed Max Gust Velocity MGV Time MGV Direction Avg. Spot Wind Velocity
2026-09-03 05:15:003° C3° C100%9 km/h13 km/h05:11:00SE10 km/h
05:10:003° C3° C99%11 km/h12 km/h05:10:00S8 km/h
05:05:003° C3° C96%6 km/h10 km/h05:01:00E6 km/h
05:00:004° C3° C93%12 km/h19 km/h04:56:00SE14 km/h
04:55:004° C2° C92%14 km/h22 km/h04:52:00SE16 km/h
04:50:004° C2° C91%19 km/h24 km/h04:49:00SE16 km/h
04:45:004° C2° C89%16 km/h26 km/h04:42:00SE17 km/h
04:40:004° C2° C87%21 km/h26 km/h04:38:00SE23 km/h
04:35:004° C2° C88%22 km/h28 km/h04:35:00SE21 km/h
04:30:004° C2° C90%14 km/h24 km/h04:27:00SE15 km/h
04:25:004° C2° C88%20 km/h22 km/h04:25:00SE18 km/h
04:20:004° C2° C87%17 km/h19 km/h04:16:00SE18 km/h
04:15:004° C2° C88%17 km/h20 km/h04:12:00SE18 km/h

We value your privacy
We use cookies to enhance your browsing experience, serve personalized ads or content, and analyze our traffic. By clicking "Allow Cookies", you consent to our use of cookies. For additional details view our Privacy Policy.
Cookie preferences

You can control how your data is used on our website. Learn more below about the cookies we use by reviewing our Privacy Policy.

Your cookie preferences have been saved.